Details From CYGL - LA GRANDE RIVIERE
To CYNM - MATAGAMI
Flight Number -
Tags decoded
Created
Modified
Stats Distance 232 nm / 430 km
Max Altitude 0 ft / 0 m
Waypoints 2
Social Downloads 0
Likes 0
Share VATSIM

Download

Looking for another format? Having issues loading an existing format? Contact us
Advertisement - Login to hide

Notes

Requested: CYGL CYNM

Route

CYGL CYNM

ID Type Via Altitude Latitude Longitude Leg Dist Tot Dist Heading (true) Name
O CYGL APT - 0 ft / 0 m 53.62537˚ -77.70412˚ - 0 nm - LA GRANDE RIVIERE
O CYNM APT - 0 ft / 0 m 49.76169˚ -77.80250˚ 232 nm 232 nm 181° / 181° MATAGAMI

Altitude Profile

Advertisement - Login to hide

Weather


0- 5 10 15 20 25 30 35+ Temperature / ° C

Clouds and Precipitation
Forecast for 2017-12-18 06:00 UTC. Updated 19 minutes ago

Ground ~20,000 ft ~40,000 ft Winds

CYGL

Details ICAO CYGL (YGL)
Name LA GRANDE RIVIERE
Region Canada
Timezone America/Montreal (UTC-5.0)
Stats Elevation 639 ft / 195 m (AMSL)
Location 53.625369° -77.704115°
Runways 1
Magnetic Variation 15.323° W

METAR

CYGL 180113Z 18010G16KT 1 1/2SM -SN DRSN BKN010 OVC024 M18/M21 A2983 RMK SN3SF2SC3 SLP126

Decode

TAF

TAF CYGL 172340Z 1800/1824 18015G25KT 11/2SM -SN OVC010 TEMPO 1800/1807 6SM -SN OVC020 FM180700 23015KT 6SM -SN OVC015 TEMPO 1807/1822 21/2SM -SN BECMG 1816/1818 20015G25KT FM182200 18015G25KT 2SM -SN OVC015 RMK NXT FCST BY 180600Z

Decode

Departure Runways

ID Width Length Bearing (true) Bearing (mag) Surface Threshold Offset Overrun Length
13 150 ft / 46 m 6,469 ft / 1,972 m 113.03° 128.35° Asphalt 0 ft / 0 m 0 ft / 0 m
31 150 ft / 46 m 6,469 ft / 1,972 m 293.05° 308.37° Asphalt 0 ft / 0 m 0 ft / 0 m

CYNM

Details ICAO CYNM (YNM)
Name MATAGAMI
Region Canada
Timezone America/Montreal (UTC-5.0)
Stats Elevation 918 ft / 280 m (AMSL)
Location 49.761691° -77.802504°
Runways 1
Magnetic Variation 13.488° W

METAR

CYNM 180100Z AUTO 18009KT 9SM BKN065 BKN150 BKN180 M20/M22 A3005 RMK ICG INTMT SLP212

Decode

TAF

Not found

Destination Runways

ID Width Length Bearing (true) Bearing (mag) Surface Threshold Offset Overrun Length
15 100 ft / 30 m 4,993 ft / 1,522 m 134.24° 147.73° Asphalt 0 ft / 0 m 0 ft / 0 m
33 100 ft / 30 m 4,993 ft / 1,522 m 314.25° 327.74° Asphalt 0 ft / 0 m 0 ft / 0 m

Popular Alternatives